sensor_id;sensor_type;location;lat;lon;timestamp;P1;durP1;ratioP1;P2;durP2;ratioP2
28766;SDS011;15921;52.034;20.650;2022-12-29T00:02:04;16.70;;;7.88;;
28766;SDS011;15921;52.034;20.650;2022-12-29T00:04:30;14.38;;;7.63;;
28766;SDS011;15921;52.034;20.650;2022-12-29T00:06:56;16.63;;;7.00;;
28766;SDS011;15921;52.034;20.650;2022-12-29T00:09:22;17.25;;;7.47;;
28766;SDS011;15921;52.034;20.650;2022-12-29T00:11:47;17.73;;;7.07;;
28766;SDS011;15921;52.034;20.650;2022-12-29T00:14:15;15.93;;;7.68;;
28766;SDS011;15921;52.034;20.650;2022-12-29T00:16:59;15.00;;;6.85;;
28766;SDS011;15921;52.034;20.650;2022-12-29T00:19:25;12.85;;;6.75;;
28766;SDS011;15921;52.034;20.650;2022-12-29T00:22:10;14.85;;;6.70;;
28766;SDS011;15921;52.034;20.650;2022-12-29T00:24:55;12.75;;;6.80;;
28766;SDS011;15921;52.034;20.650;2022-12-29T00:27:39;12.77;;;6.10;;
28766;SDS011;15921;52.034;20.650;2022-12-29T00:30:24;18.48;;;7.32;;
28766;SDS011;15921;52.034;20.650;2022-12-29T00:33:12;12.65;;;6.70;;
28766;SDS011;15921;52.034;20.650;2022-12-29T00:36:02;15.15;;;6.75;;
28766;SDS011;15921;52.034;20.650;2022-12-29T00:38:53;15.50;;;5.97;;
28766;SDS011;15921;52.034;20.650;2022-12-29T00:41:41;13.73;;;6.13;;
28766;SDS011;15921;52.034;20.650;2022-12-29T00:44:25;16.42;;;6.38;;
28766;SDS011;15921;52.034;20.650;2022-12-29T00:46:51;16.52;;;6.68;;
28766;SDS011;15921;52.034;20.650;2022-12-29T00:49:17;12.65;;;5.95;;
28766;SDS011;15921;52.034;20.650;2022-12-29T00:52:02;12.88;;;6.40;;
28766;SDS011;15921;52.034;20.650;2022-12-29T00:54:31;14.73;;;6.85;;
28766;SDS011;15921;52.034;20.650;2022-12-29T00:57:00;12.10;;;5.93;;
28766;SDS011;15921;52.034;20.650;2022-12-29T00:59:26;13.07;;;5.90;;
28766;SDS011;15921;52.034;20.650;2022-12-29T01:01:52;11.32;;;6.30;;
28766;SDS011;15921;52.034;20.650;2022-12-29T01:04:19;13.32;;;5.80;;
28766;SDS011;15921;52.034;20.650;2022-12-29T01:06:46;12.52;;;5.97;;
28766;SDS011;15921;52.034;20.650;2022-12-29T01:09:12;13.10;;;5.75;;
28766;SDS011;15921;52.034;20.650;2022-12-29T01:11:56;15.20;;;5.95;;
28766;SDS011;15921;52.034;20.650;2022-12-29T01:14:23;17.40;;;7.13;;
28766;SDS011;15921;52.034;20.650;2022-12-29T01:16:49;14.00;;;5.78;;
28766;SDS011;15921;52.034;20.650;2022-12-29T01:19:15;11.30;;;5.70;;
28766;SDS011;15921;52.034;20.650;2022-12-29T01:21:41;13.48;;;6.32;;
28766;SDS011;15921;52.034;20.650;2022-12-29T01:24:07;10.90;;;5.15;;
28766;SDS011;15921;52.034;20.650;2022-12-29T01:26:32;14.55;;;5.70;;
28766;SDS011;15921;52.034;20.650;2022-12-29T01:28:58;12.98;;;5.32;;
28766;SDS011;15921;52.034;20.650;2022-12-29T01:31:24;15.68;;;5.72;;
28766;SDS011;15921;52.034;20.650;2022-12-29T01:33:49;14.77;;;5.57;;
28766;SDS011;15921;52.034;20.650;2022-12-29T01:36:16;11.38;;;5.65;;
28766;SDS011;15921;52.034;20.650;2022-12-29T01:38:42;11.02;;;5.32;;
28766;SDS011;15921;52.034;20.650;2022-12-29T01:41:10;10.88;;;5.32;;
28766;SDS011;15921;52.034;20.650;2022-12-29T01:43:38;10.82;;;5.65;;
28766;SDS011;15921;52.034;20.650;2022-12-29T01:48:45;11.02;;;5.80;;
28766;SDS011;15921;52.034;20.650;2022-12-29T01:51:13;10.20;;;4.55;;
28766;SDS011;15921;52.034;20.650;2022-12-29T01:53:40;10.95;;;5.68;;
28766;SDS011;15921;52.034;20.650;2022-12-29T01:56:07;10.18;;;5.68;;
28766;SDS011;15921;52.034;20.650;2022-12-29T01:58:38;11.68;;;5.65;;
28766;SDS011;15921;52.034;20.650;2022-12-29T02:01:08;10.07;;;4.45;;
28766;SDS011;15921;52.034;20.650;2022-12-29T02:03:35;10.88;;;5.07;;
28766;SDS011;15921;52.034;20.650;2022-12-29T02:06:12;11.45;;;5.75;;
28766;SDS011;15921;52.034;20.650;2022-12-29T02:08:43;10.57;;;5.22;;
28766;SDS011;15921;52.034;20.650;2022-12-29T02:11:12;13.07;;;5.13;;
28766;SDS011;15921;52.034;20.650;2022-12-29T02:13:38;11.45;;;4.93;;
28766;SDS011;15921;52.034;20.650;2022-12-29T02:19:01;10.20;;;4.68;;
28766;SDS011;15921;52.034;20.650;2022-12-29T02:33:08;10.73;;;4.70;;
28766;SDS011;15921;52.034;20.650;2022-12-29T02:36:01;11.93;;;5.10;;
28766;SDS011;15921;52.034;20.650;2022-12-29T02:38:46;10.30;;;5.00;;
28766;SDS011;15921;52.034;20.650;2022-12-29T02:44:05;10.32;;;5.13;;
28766;SDS011;15921;52.034;20.650;2022-12-29T02:49:20;12.40;;;5.68;;
28766;SDS011;15921;52.034;20.650;2022-12-29T02:52:04;12.90;;;5.35;;
28766;SDS011;15921;52.034;20.650;2022-12-29T02:54:41;13.75;;;5.20;;
28766;SDS011;15921;52.034;20.650;2022-12-29T02:57:11;10.13;;;4.68;;
28766;SDS011;15921;52.034;20.650;2022-12-29T03:02:17;9.73;;;4.75;;
28766;SDS011;15921;52.034;20.650;2022-12-29T03:16:53;13.20;;;5.03;;
28766;SDS011;15921;52.034;20.650;2022-12-29T03:21:56;11.45;;;4.68;;
28766;SDS011;15921;52.034;20.650;2022-12-29T03:24:45;11.05;;;4.82;;
28766;SDS011;15921;52.034;20.650;2022-12-29T03:27:15;9.50;;;4.60;;
28766;SDS011;15921;52.034;20.650;2022-12-29T03:29:49;14.02;;;5.57;;
28766;SDS011;15921;52.034;20.650;2022-12-29T03:32:19;9.60;;;4.43;;
28766;SDS011;15921;52.034;20.650;2022-12-29T03:34:48;11.25;;;5.00;;
28766;SDS011;15921;52.034;20.650;2022-12-29T03:37:16;9.93;;;4.72;;
28766;SDS011;15921;52.034;20.650;2022-12-29T03:39:45;11.30;;;4.55;;
28766;SDS011;15921;52.034;20.650;2022-12-29T03:42:15;13.27;;;4.63;;
28766;SDS011;15921;52.034;20.650;2022-12-29T03:44:45;11.52;;;5.32;;
28766;SDS011;15921;52.034;20.650;2022-12-29T03:47:12;11.57;;;4.93;;
28766;SDS011;15921;52.034;20.650;2022-12-29T03:49:39;10.95;;;4.90;;
28766;SDS011;15921;52.034;20.650;2022-12-29T03:52:05;10.63;;;5.13;;
28766;SDS011;15921;52.034;20.650;2022-12-29T03:54:31;11.90;;;5.20;;
28766;SDS011;15921;52.034;20.650;2022-12-29T03:56:57;8.90;;;4.38;;
28766;SDS011;15921;52.034;20.650;2022-12-29T03:59:23;10.20;;;5.28;;
28766;SDS011;15921;52.034;20.650;2022-12-29T04:01:49;11.68;;;5.60;;
28766;SDS011;15921;52.034;20.650;2022-12-29T04:04:15;11.23;;;5.30;;
28766;SDS011;15921;52.034;20.650;2022-12-29T04:06:42;10.05;;;5.70;;
28766;SDS011;15921;52.034;20.650;2022-12-29T04:09:09;12.02;;;4.95;;
28766;SDS011;15921;52.034;20.650;2022-12-29T04:11:34;12.27;;;5.57;;
28766;SDS011;15921;52.034;20.650;2022-12-29T04:14:00;15.98;;;6.38;;
28766;SDS011;15921;52.034;20.650;2022-12-29T04:16:26;14.45;;;5.55;;
28766;SDS011;15921;52.034;20.650;2022-12-29T04:18:51;12.63;;;5.53;;
28766;SDS011;15921;52.034;20.650;2022-12-29T04:21:17;15.07;;;6.15;;
28766;SDS011;15921;52.034;20.650;2022-12-29T04:23:43;11.27;;;5.60;;
28766;SDS011;15921;52.034;20.650;2022-12-29T04:26:09;16.25;;;5.90;;
28766;SDS011;15921;52.034;20.650;2022-12-29T04:28:35;14.70;;;6.32;;
28766;SDS011;15921;52.034;20.650;2022-12-29T04:31:02;13.52;;;6.22;;
28766;SDS011;15921;52.034;20.650;2022-12-29T04:33:29;17.70;;;6.60;;
28766;SDS011;15921;52.034;20.650;2022-12-29T04:35:55;15.75;;;6.35;;
28766;SDS011;15921;52.034;20.650;2022-12-29T04:38:21;18.15;;;6.88;;
28766;SDS011;15921;52.034;20.650;2022-12-29T04:40:47;15.45;;;7.25;;
28766;SDS011;15921;52.034;20.650;2022-12-29T04:43:14;16.25;;;6.95;;
28766;SDS011;15921;52.034;20.650;2022-12-29T04:45:43;14.02;;;6.32;;
28766;SDS011;15921;52.034;20.650;2022-12-29T04:48:10;13.80;;;6.35;;
28766;SDS011;15921;52.034;20.650;2022-12-29T04:50:35;16.48;;;6.63;;
28766;SDS011;15921;52.034;20.650;2022-12-29T04:53:01;17.33;;;6.80;;
28766;SDS011;15921;52.034;20.650;2022-12-29T04:55:27;15.27;;;7.03;;
28766;SDS011;15921;52.034;20.650;2022-12-29T04:57:53;17.35;;;6.90;;
28766;SDS011;15921;52.034;20.650;2022-12-29T05:00:19;20.02;;;7.03;;
28766;SDS011;15921;52.034;20.650;2022-12-29T05:02:44;17.95;;;7.00;;
28766;SDS011;15921;52.034;20.650;2022-12-29T05:05:10;19.33;;;7.78;;
28766;SDS011;15921;52.034;20.650;2022-12-29T05:07:36;15.93;;;7.03;;
28766;SDS011;15921;52.034;20.650;2022-12-29T05:10:02;16.92;;;7.45;;
28766;SDS011;15921;52.034;20.650;2022-12-29T05:12:31;14.55;;;6.65;;
28766;SDS011;15921;52.034;20.650;2022-12-29T05:14:58;14.07;;;6.88;;
28766;SDS011;15921;52.034;20.650;2022-12-29T05:17:24;15.23;;;6.70;;
28766;SDS011;15921;52.034;20.650;2022-12-29T05:19:50;15.10;;;7.13;;
28766;SDS011;15921;52.034;20.650;2022-12-29T05:22:15;18.25;;;7.10;;
28766;SDS011;15921;52.034;20.650;2022-12-29T05:24:41;14.20;;;6.45;;
28766;SDS011;15921;52.034;20.650;2022-12-29T05:27:07;15.40;;;7.10;;
28766;SDS011;15921;52.034;20.650;2022-12-29T05:29:32;15.00;;;6.85;;
28766;SDS011;15921;52.034;20.650;2022-12-29T05:31:58;13.68;;;6.35;;
28766;SDS011;15921;52.034;20.650;2022-12-29T05:34:24;15.55;;;6.90;;
28766;SDS011;15921;52.034;20.650;2022-12-29T05:36:50;14.70;;;6.60;;
28766;SDS011;15921;52.034;20.650;2022-12-29T05:39:15;15.93;;;6.72;;
28766;SDS011;15921;52.034;20.650;2022-12-29T05:41:41;13.35;;;6.68;;
28766;SDS011;15921;52.034;20.650;2022-12-29T05:44:07;15.85;;;6.22;;
28766;SDS011;15921;52.034;20.650;2022-12-29T05:46:33;15.82;;;7.10;;
28766;SDS011;15921;52.034;20.650;2022-12-29T05:48:58;14.77;;;6.28;;
28766;SDS011;15921;52.034;20.650;2022-12-29T05:51:24;15.63;;;6.68;;
28766;SDS011;15921;52.034;20.650;2022-12-29T05:53:50;15.05;;;6.30;;
28766;SDS011;15921;52.034;20.650;2022-12-29T05:56:15;14.05;;;6.20;;
28766;SDS011;15921;52.034;20.650;2022-12-29T05:58:41;14.88;;;6.18;;
28766;SDS011;15921;52.034;20.650;2022-12-29T06:01:07;13.25;;;5.75;;
28766;SDS011;15921;52.034;20.650;2022-12-29T06:03:35;17.60;;;6.38;;
28766;SDS011;15921;52.034;20.650;2022-12-29T06:06:01;15.43;;;6.32;;
28766;SDS011;15921;52.034;20.650;2022-12-29T06:08:27;13.75;;;6.13;;
28766;SDS011;15921;52.034;20.650;2022-12-29T06:10:52;12.35;;;6.10;;
28766;SDS011;15921;52.034;20.650;2022-12-29T06:13:18;12.85;;;6.10;;
28766;SDS011;15921;52.034;20.650;2022-12-29T06:15:50;18.88;;;6.28;;
28766;SDS011;15921;52.034;20.650;2022-12-29T06:18:16;13.43;;;6.47;;
28766;SDS011;15921;52.034;20.650;2022-12-29T06:20:42;12.98;;;5.20;;
28766;SDS011;15921;52.034;20.650;2022-12-29T06:23:08;14.35;;;5.82;;
28766;SDS011;15921;52.034;20.650;2022-12-29T06:25:33;13.07;;;5.63;;
28766;SDS011;15921;52.034;20.650;2022-12-29T06:28:01;12.30;;;5.93;;
28766;SDS011;15921;52.034;20.650;2022-12-29T06:30:27;11.55;;;5.68;;
28766;SDS011;15921;52.034;20.650;2022-12-29T06:32:53;13.25;;;5.22;;
28766;SDS011;15921;52.034;20.650;2022-12-29T06:35:19;11.23;;;5.35;;
28766;SDS011;15921;52.034;20.650;2022-12-29T06:37:47;14.98;;;5.68;;
28766;SDS011;15921;52.034;20.650;2022-12-29T06:40:13;12.85;;;5.75;;
28766;SDS011;15921;52.034;20.650;2022-12-29T06:42:39;15.95;;;5.68;;
28766;SDS011;15921;52.034;20.650;2022-12-29T06:45:05;11.82;;;5.60;;
28766;SDS011;15921;52.034;20.650;2022-12-29T06:47:32;13.40;;;5.53;;
28766;SDS011;15921;52.034;20.650;2022-12-29T06:49:59;13.57;;;5.68;;
28766;SDS011;15921;52.034;20.650;2022-12-29T06:52:25;12.55;;;6.18;;
28766;SDS011;15921;52.034;20.650;2022-12-29T06:54:51;12.55;;;5.55;;
28766;SDS011;15921;52.034;20.650;2022-12-29T06:57:16;15.75;;;6.60;;
28766;SDS011;15921;52.034;20.650;2022-12-29T06:59:42;12.88;;;5.93;;
28766;SDS011;15921;52.034;20.650;2022-12-29T07:02:11;16.40;;;5.85;;
28766;SDS011;15921;52.034;20.650;2022-12-29T07:04:38;13.23;;;5.38;;
28766;SDS011;15921;52.034;20.650;2022-12-29T07:07:03;11.68;;;5.68;;
28766;SDS011;15921;52.034;20.650;2022-12-29T07:09:29;16.08;;;5.50;;
28766;SDS011;15921;52.034;20.650;2022-12-29T07:11:55;12.15;;;5.35;;
28766;SDS011;15921;52.034;20.650;2022-12-29T07:14:20;11.52;;;5.75;;
28766;SDS011;15921;52.034;20.650;2022-12-29T07:16:46;13.48;;;6.03;;
28766;SDS011;15921;52.034;20.650;2022-12-29T07:19:12;12.98;;;5.63;;
28766;SDS011;15921;52.034;20.650;2022-12-29T07:21:37;16.77;;;6.20;;
28766;SDS011;15921;52.034;20.650;2022-12-29T07:24:03;14.20;;;5.13;;
28766;SDS011;15921;52.034;20.650;2022-12-29T07:26:29;10.93;;;4.97;;
28766;SDS011;15921;52.034;20.650;2022-12-29T07:28:55;15.18;;;5.22;;
28766;SDS011;15921;52.034;20.650;2022-12-29T07:31:21;12.73;;;5.43;;
28766;SDS011;15921;52.034;20.650;2022-12-29T07:33:49;14.70;;;5.78;;
28766;SDS011;15921;52.034;20.650;2022-12-29T07:36:15;12.23;;;5.70;;
28766;SDS011;15921;52.034;20.650;2022-12-29T07:38:41;10.50;;;5.13;;
28766;SDS011;15921;52.034;20.650;2022-12-29T07:41:07;10.40;;;4.78;;
28766;SDS011;15921;52.034;20.650;2022-12-29T07:43:33;10.63;;;5.35;;
28766;SDS011;15921;52.034;20.650;2022-12-29T07:45:59;8.98;;;5.10;;
28766;SDS011;15921;52.034;20.650;2022-12-29T07:48:25;10.27;;;5.50;;
28766;SDS011;15921;52.034;20.650;2022-12-29T07:50:51;11.63;;;5.70;;
28766;SDS011;15921;52.034;20.650;2022-12-29T07:53:17;11.13;;;5.28;;
28766;SDS011;15921;52.034;20.650;2022-12-29T07:55:43;12.60;;;5.45;;
28766;SDS011;15921;52.034;20.650;2022-12-29T07:58:10;13.70;;;5.47;;
28766;SDS011;15921;52.034;20.650;2022-12-29T08:00:37;12.82;;;4.75;;
28766;SDS011;15921;52.034;20.650;2022-12-29T08:03:03;10.75;;;5.15;;
28766;SDS011;15921;52.034;20.650;2022-12-29T08:05:30;10.80;;;5.47;;
28766;SDS011;15921;52.034;20.650;2022-12-29T08:07:57;10.55;;;5.28;;
28766;SDS011;15921;52.034;20.650;2022-12-29T08:10:23;14.30;;;5.60;;
28766;SDS011;15921;52.034;20.650;2022-12-29T08:12:48;11.23;;;5.50;;
28766;SDS011;15921;52.034;20.650;2022-12-29T08:15:14;11.30;;;5.05;;
28766;SDS011;15921;52.034;20.650;2022-12-29T08:17:40;12.05;;;5.43;;
28766;SDS011;15921;52.034;20.650;2022-12-29T08:20:06;13.70;;;5.95;;
28766;SDS011;15921;52.034;20.650;2022-12-29T08:22:32;12.90;;;5.43;;
28766;SDS011;15921;52.034;20.650;2022-12-29T08:24:58;14.00;;;6.38;;
28766;SDS011;15921;52.034;20.650;2022-12-29T08:27:24;10.85;;;5.70;;
28766;SDS011;15921;52.034;20.650;2022-12-29T08:29:50;10.18;;;4.95;;
28766;SDS011;15921;52.034;20.650;2022-12-29T08:32:16;12.85;;;5.68;;
28766;SDS011;15921;52.034;20.650;2022-12-29T08:34:42;11.30;;;5.13;;
28766;SDS011;15921;52.034;20.650;2022-12-29T08:37:07;9.73;;;4.78;;
28766;SDS011;15921;52.034;20.650;2022-12-29T08:39:33;12.93;;;4.85;;
28766;SDS011;15921;52.034;20.650;2022-12-29T08:41:59;10.23;;;5.15;;
28766;SDS011;15921;52.034;20.650;2022-12-29T08:44:25;11.50;;;4.90;;
28766;SDS011;15921;52.034;20.650;2022-12-29T08:46:50;14.68;;;6.70;;
28766;SDS011;15921;52.034;20.650;2022-12-29T08:49:16;16.88;;;5.65;;
28766;SDS011;15921;52.034;20.650;2022-12-29T08:51:42;10.10;;;5.22;;
28766;SDS011;15921;52.034;20.650;2022-12-29T08:54:08;11.18;;;5.35;;
28766;SDS011;15921;52.034;20.650;2022-12-29T08:56:33;11.85;;;5.03;;
28766;SDS011;15921;52.034;20.650;2022-12-29T08:58:59;11.57;;;5.47;;
28766;SDS011;15921;52.034;20.650;2022-12-29T09:01:25;13.90;;;5.40;;
28766;SDS011;15921;52.034;20.650;2022-12-29T09:03:50;11.65;;;5.25;;
28766;SDS011;15921;52.034;20.650;2022-12-29T09:06:18;12.20;;;4.68;;
28766;SDS011;15921;52.034;20.650;2022-12-29T09:08:43;11.23;;;5.43;;
28766;SDS011;15921;52.034;20.650;2022-12-29T09:11:19;15.25;;;6.82;;
28766;SDS011;15921;52.034;20.650;2022-12-29T09:13:46;14.38;;;6.35;;
28766;SDS011;15921;52.034;20.650;2022-12-29T09:16:13;16.63;;;7.07;;
28766;SDS011;15921;52.034;20.650;2022-12-29T09:18:40;14.65;;;7.03;;
28766;SDS011;15921;52.034;20.650;2022-12-29T09:21:06;13.80;;;5.82;;
28766;SDS011;15921;52.034;20.650;2022-12-29T09:23:34;13.40;;;6.20;;
28766;SDS011;15921;52.034;20.650;2022-12-29T09:26:00;15.70;;;5.97;;
28766;SDS011;15921;52.034;20.650;2022-12-29T09:28:26;15.15;;;6.68;;
28766;SDS011;15921;52.034;20.650;2022-12-29T09:30:53;16.20;;;5.88;;
28766;SDS011;15921;52.034;20.650;2022-12-29T09:33:19;12.65;;;5.95;;
28766;SDS011;15921;52.034;20.650;2022-12-29T09:35:49;15.65;;;6.05;;
28766;SDS011;15921;52.034;20.650;2022-12-29T09:38:17;12.43;;;6.18;;
28766;SDS011;15921;52.034;20.650;2022-12-29T09:40:44;9.43;;;4.97;;
28766;SDS011;15921;52.034;20.650;2022-12-29T09:43:17;10.68;;;5.63;;
28766;SDS011;15921;52.034;20.650;2022-12-29T09:48:40;10.48;;;4.80;;
28766;SDS011;15921;52.034;20.650;2022-12-29T09:51:14;12.85;;;5.07;;
28766;SDS011;15921;52.034;20.650;2022-12-29T09:56:52;11.80;;;4.90;;
28766;SDS011;15921;52.034;20.650;2022-12-29T09:59:22;10.70;;;4.93;;
28766;SDS011;15921;52.034;20.650;2022-12-29T10:01:57;11.30;;;4.90;;
28766;SDS011;15921;52.034;20.650;2022-12-29T10:04:35;12.05;;;5.20;;
28766;SDS011;15921;52.034;20.650;2022-12-29T10:07:03;13.68;;;5.20;;
28766;SDS011;15921;52.034;20.650;2022-12-29T10:09:41;11.52;;;5.82;;
28766;SDS011;15921;52.034;20.650;2022-12-29T10:18:48;11.75;;;5.50;;
28766;SDS011;15921;52.034;20.650;2022-12-29T10:23:51;12.52;;;5.72;;
28766;SDS011;15921;52.034;20.650;2022-12-29T10:26:19;11.38;;;5.65;;
28766;SDS011;15921;52.034;20.650;2022-12-29T10:28:56;11.90;;;5.38;;
28766;SDS011;15921;52.034;20.650;2022-12-29T10:31:33;12.45;;;5.05;;
28766;SDS011;15921;52.034;20.650;2022-12-29T10:34:06;15.48;;;5.50;;
28766;SDS011;15921;52.034;20.650;2022-12-29T10:36:46;8.57;;;4.80;;
28766;SDS011;15921;52.034;20.650;2022-12-29T10:39:16;10.07;;;5.28;;
28766;SDS011;15921;52.034;20.650;2022-12-29T10:44:34;13.93;;;5.75;;
28766;SDS011;15921;52.034;20.650;2022-12-29T10:47:02;13.52;;;5.43;;
28766;SDS011;15921;52.034;20.650;2022-12-29T10:49:32;15.63;;;5.68;;
28766;SDS011;15921;52.034;20.650;2022-12-29T10:52:04;10.68;;;5.38;;
28766;SDS011;15921;52.034;20.650;2022-12-29T10:54:51;14.45;;;5.72;;
28766;SDS011;15921;52.034;20.650;2022-12-29T10:59:58;10.20;;;5.25;;
28766;SDS011;15921;52.034;20.650;2022-12-29T11:07:53;11.30;;;5.35;;
28766;SDS011;15921;52.034;20.650;2022-12-29T11:12:59;10.68;;;5.43;;
28766;SDS011;15921;52.034;20.650;2022-12-29T11:15:28;11.38;;;5.15;;
28766;SDS011;15921;52.034;20.650;2022-12-29T11:18:23;13.52;;;6.10;;
28766;SDS011;15921;52.034;20.650;2022-12-29T11:21:30;11.13;;;5.13;;
28766;SDS011;15921;52.034;20.650;2022-12-29T11:24:28;10.23;;;5.32;;
28766;SDS011;15921;52.034;20.650;2022-12-29T11:27:10;9.77;;;4.82;;
28766;SDS011;15921;52.034;20.650;2022-12-29T11:29:41;10.88;;;5.57;;
28766;SDS011;15921;52.034;20.650;2022-12-29T11:32:27;9.05;;;4.85;;
28766;SDS011;15921;52.034;20.650;2022-12-29T11:34:56;9.10;;;4.93;;
28766;SDS011;15921;52.034;20.650;2022-12-29T11:40:03;10.30;;;5.30;;
28766;SDS011;15921;52.034;20.650;2022-12-29T11:42:40;13.60;;;6.35;;
28766;SDS011;15921;52.034;20.650;2022-12-29T11:45:19;13.18;;;5.60;;
28766;SDS011;15921;52.034;20.650;2022-12-29T11:47:52;16.45;;;5.45;;
28766;SDS011;15921;52.034;20.650;2022-12-29T11:50:22;9.60;;;5.30;;
28766;SDS011;15921;52.034;20.650;2022-12-29T11:58:33;13.52;;;5.85;;
28766;SDS011;15921;52.034;20.650;2022-12-29T12:01:00;13.27;;;5.88;;
28766;SDS011;15921;52.034;20.650;2022-12-29T12:03:32;19.13;;;6.07;;
28766;SDS011;15921;52.034;20.650;2022-12-29T12:06:01;13.75;;;6.00;;
28766;SDS011;15921;52.034;20.650;2022-12-29T12:08:38;12.30;;;5.60;;
28766;SDS011;15921;52.034;20.650;2022-12-29T12:11:28;11.93;;;5.80;;
28766;SDS011;15921;52.034;20.650;2022-12-29T12:14:02;10.82;;;5.28;;
28766;SDS011;15921;52.034;20.650;2022-12-29T12:16:47;10.68;;;5.75;;
28766;SDS011;15921;52.034;20.650;2022-12-29T12:22:19;17.65;;;5.70;;
28766;SDS011;15921;52.034;20.650;2022-12-29T12:25:37;16.42;;;5.72;;
28766;SDS011;15921;52.034;20.650;2022-12-29T12:30:37;12.75;;;5.47;;
28766;SDS011;15921;52.034;20.650;2022-12-29T12:39:02;11.60;;;5.35;;
28766;SDS011;15921;52.034;20.650;2022-12-29T13:06:41;9.77;;;5.10;;
28766;SDS011;15921;52.034;20.650;2022-12-29T13:22:54;12.50;;;6.25;;
28766;SDS011;15921;52.034;20.650;2022-12-29T13:25:39;14.35;;;5.45;;
28766;SDS011;15921;52.034;20.650;2022-12-29T13:28:16;13.98;;;6.45;;
28766;SDS011;15921;52.034;20.650;2022-12-29T13:31:00;12.05;;;5.75;;
28766;SDS011;15921;52.034;20.650;2022-12-29T13:41:41;11.80;;;6.05;;
28766;SDS011;15921;52.034;20.650;2022-12-29T13:47:21;18.73;;;6.68;;
28766;SDS011;15921;52.034;20.650;2022-12-29T13:50:08;11.65;;;5.95;;
28766;SDS011;15921;52.034;20.650;2022-12-29T13:55:29;16.30;;;6.53;;
28766;SDS011;15921;52.034;20.650;2022-12-29T14:03:32;15.52;;;6.80;;
28766;SDS011;15921;52.034;20.650;2022-12-29T14:06:17;12.27;;;5.82;;
28766;SDS011;15921;52.034;20.650;2022-12-29T14:08:57;16.35;;;7.05;;
28766;SDS011;15921;52.034;20.650;2022-12-29T14:11:32;17.58;;;6.18;;
28766;SDS011;15921;52.034;20.650;2022-12-29T14:14:10;14.57;;;6.30;;
28766;SDS011;15921;52.034;20.650;2022-12-29T14:16:45;17.42;;;7.20;;
28766;SDS011;15921;52.034;20.650;2022-12-29T14:19:15;21.80;;;6.90;;
28766;SDS011;15921;52.034;20.650;2022-12-29T14:21:59;14.63;;;6.45;;
28766;SDS011;15921;52.034;20.650;2022-12-29T14:24:32;14.73;;;6.28;;
28766;SDS011;15921;52.034;20.650;2022-12-29T14:34:59;12.38;;;5.82;;
28766;SDS011;15921;52.034;20.650;2022-12-29T14:37:47;13.68;;;6.45;;
28766;SDS011;15921;52.034;20.650;2022-12-29T14:40:45;15.05;;;6.82;;
28766;SDS011;15921;52.034;20.650;2022-12-29T14:43:06;14.60;;;6.18;;
28766;SDS011;15921;52.034;20.650;2022-12-29T14:45:40;17.23;;;7.15;;
28766;SDS011;15921;52.034;20.650;2022-12-29T14:48:21;12.63;;;5.88;;
28766;SDS011;15921;52.034;20.650;2022-12-29T14:50:55;14.40;;;6.72;;
28766;SDS011;15921;52.034;20.650;2022-12-29T14:56:08;13.02;;;6.53;;
28766;SDS011;15921;52.034;20.650;2022-12-29T14:58:52;15.45;;;6.90;;
28766;SDS011;15921;52.034;20.650;2022-12-29T15:03:53;18.85;;;7.30;;
28766;SDS011;15921;52.034;20.650;2022-12-29T15:06:22;15.07;;;8.25;;
28766;SDS011;15921;52.034;20.650;2022-12-29T15:08:59;17.15;;;8.57;;
28766;SDS011;15921;52.034;20.650;2022-12-29T15:14:01;14.13;;;7.07;;
28766;SDS011;15921;52.034;20.650;2022-12-29T15:16:31;14.82;;;7.53;;
28766;SDS011;15921;52.034;20.650;2022-12-29T15:19:02;19.33;;;7.07;;
28766;SDS011;15921;52.034;20.650;2022-12-29T15:21:33;12.95;;;7.03;;
28766;SDS011;15921;52.034;20.650;2022-12-29T15:24:00;15.50;;;7.43;;
28766;SDS011;15921;52.034;20.650;2022-12-29T15:26:36;16.00;;;7.40;;
28766;SDS011;15921;52.034;20.650;2022-12-29T15:29:05;15.15;;;7.28;;
28766;SDS011;15921;52.034;20.650;2022-12-29T15:31:51;16.17;;;6.93;;
28766;SDS011;15921;52.034;20.650;2022-12-29T15:34:19;14.93;;;7.28;;
28766;SDS011;15921;52.034;20.650;2022-12-29T15:36:46;17.50;;;7.53;;
28766;SDS011;15921;52.034;20.650;2022-12-29T15:39:27;14.27;;;6.75;;
28766;SDS011;15921;52.034;20.650;2022-12-29T15:41:56;15.23;;;6.63;;
28766;SDS011;15921;52.034;20.650;2022-12-29T15:46:54;18.67;;;7.75;;
28766;SDS011;15921;52.034;20.650;2022-12-29T15:49:20;16.17;;;7.70;;
28766;SDS011;15921;52.034;20.650;2022-12-29T15:51:49;18.75;;;8.50;;
28766;SDS011;15921;52.034;20.650;2022-12-29T15:54:16;15.70;;;7.50;;
28766;SDS011;15921;52.034;20.650;2022-12-29T15:56:43;18.60;;;7.72;;
28766;SDS011;15921;52.034;20.650;2022-12-29T15:59:23;16.10;;;7.03;;
28766;SDS011;15921;52.034;20.650;2022-12-29T16:01:49;14.65;;;7.18;;
28766;SDS011;15921;52.034;20.650;2022-12-29T16:04:15;14.30;;;7.32;;
28766;SDS011;15921;52.034;20.650;2022-12-29T16:06:45;17.02;;;7.13;;
28766;SDS011;15921;52.034;20.650;2022-12-29T16:09:41;14.60;;;7.47;;
28766;SDS011;15921;52.034;20.650;2022-12-29T16:12:15;18.25;;;7.38;;
28766;SDS011;15921;52.034;20.650;2022-12-29T16:17:22;15.68;;;7.05;;
28766;SDS011;15921;52.034;20.650;2022-12-29T16:19:57;14.55;;;6.72;;
28766;SDS011;15921;52.034;20.650;2022-12-29T16:25:03;15.32;;;6.93;;
28766;SDS011;15921;52.034;20.650;2022-12-29T16:27:38;14.05;;;7.15;;
28766;SDS011;15921;52.034;20.650;2022-12-29T16:30:26;12.90;;;6.63;;
28766;SDS011;15921;52.034;20.650;2022-12-29T16:32:53;17.25;;;7.53;;
28766;SDS011;15921;52.034;20.650;2022-12-29T16:35:21;14.18;;;6.63;;
28766;SDS011;15921;52.034;20.650;2022-12-29T16:38:34;16.83;;;6.78;;
28766;SDS011;15921;52.034;20.650;2022-12-29T16:40:52;17.25;;;7.40;;
28766;SDS011;15921;52.034;20.650;2022-12-29T16:43:24;17.63;;;7.55;;
28766;SDS011;15921;52.034;20.650;2022-12-29T16:48:23;16.00;;;7.25;;
28766;SDS011;15921;52.034;20.650;2022-12-29T16:51:14;16.92;;;7.55;;
28766;SDS011;15921;52.034;20.650;2022-12-29T16:53:50;16.63;;;7.40;;
28766;SDS011;15921;52.034;20.650;2022-12-29T16:56:20;16.20;;;7.63;;
28766;SDS011;15921;52.034;20.650;2022-12-29T16:58:49;16.05;;;7.70;;
28766;SDS011;15921;52.034;20.650;2022-12-29T17:01:39;14.70;;;8.07;;
28766;SDS011;15921;52.034;20.650;2022-12-29T17:04:05;17.08;;;7.90;;
28766;SDS011;15921;52.034;20.650;2022-12-29T17:06:33;17.50;;;8.32;;
28766;SDS011;15921;52.034;20.650;2022-12-29T17:08:59;20.13;;;8.98;;
28766;SDS011;15921;52.034;20.650;2022-12-29T17:11:29;21.00;;;8.85;;
28766;SDS011;15921;52.034;20.650;2022-12-29T17:17:00;19.08;;;8.85;;
28766;SDS011;15921;52.034;20.650;2022-12-29T17:19:31;18.35;;;8.45;;
28766;SDS011;15921;52.034;20.650;2022-12-29T17:21:59;15.27;;;8.18;;
28766;SDS011;15921;52.034;20.650;2022-12-29T17:24:25;21.15;;;9.05;;
28766;SDS011;15921;52.034;20.650;2022-12-29T17:26:52;19.02;;;8.88;;
28766;SDS011;15921;52.034;20.650;2022-12-29T17:32:00;21.42;;;8.52;;
28766;SDS011;15921;52.034;20.650;2022-12-29T17:34:27;19.10;;;8.60;;
28766;SDS011;15921;52.034;20.650;2022-12-29T17:36:53;18.88;;;8.43;;
28766;SDS011;15921;52.034;20.650;2022-12-29T17:39:18;23.70;;;9.43;;